Time;durP1;ratioP1;P1;durP2;ratioP2;P2;SDS_P1;SDS_P2;PMS_P1;PMS_P2;Temp;Humidity;BMP_temperature;BMP_pressure;BME280_temperature;BME280_humidity;BME280_pressure;Samples;Min_cycle;Max_cycle;Signal;HPM_P1;HPM_P2
2021/09/21 00:01:32;;;;;;;0.60;0.60;;;11.70;99.90;;;;;;5136431;27;20188;-66
2021/09/21 00:03:57;;;;;;;0.50;0.50;;;11.70;99.90;;;;;;5136213;27;20179;-67
2021/09/21 00:06:23;;;;;;;0.30;0.30;;;11.70;99.90;;;;;;5136475;27;20206;-68
2021/09/21 00:08:49;;;;;;;0.30;0.30;;;11.60;99.90;;;;;;5136358;27;20195;-68
2021/09/21 00:11:15;;;;;;;0.30;0.30;;;11.60;99.90;;;;;;5136155;27;20543;-68
2021/09/21 00:13:41;;;;;;;0.73;0.73;;;11.50;99.90;;;;;;5136096;27;20172;-67
2021/09/21 00:16:06;;;;;;;0.30;0.30;;;11.40;99.90;;;;;;5136539;27;20254;-68
2021/09/21 00:18:32;;;;;;;0.40;0.40;;;11.40;99.90;;;;;;5136289;27;20404;-67
2021/09/21 00:20:58;;;;;;;0.30;0.30;;;11.40;99.90;;;;;;5136103;27;20206;-66
2021/09/21 00:23:24;;;;;;;0.30;0.30;;;11.30;99.90;;;;;;5135809;27;20172;-67
2021/09/21 00:25:49;;;;;;;0.40;0.40;;;11.30;99.90;;;;;;5136168;27;20742;-68
2021/09/21 00:28:15;;;;;;;0.30;0.30;;;11.20;99.90;;;;;;5135733;27;20444;-67
2021/09/21 00:30:48;;;;;;;0.30;0.30;;;11.10;99.90;;;;;;5135851;27;20168;-68
2021/09/21 00:33:18;;;;;;;0.30;0.30;;;11.00;99.90;;;;;;5136165;27;20617;-68
2021/09/21 00:35:46;;;;;;;0.40;0.40;;;11.00;99.90;;;;;;5136192;27;20179;-67
2021/09/21 00:38:14;;;;;;;0.50;0.50;;;11.00;99.90;;;;;;5135652;27;20167;-68
2021/09/21 00:40:41;;;;;;;0.30;0.30;;;11.10;99.90;;;;;;5135590;27;20172;-67
2021/09/21 00:43:07;;;;;;;0.30;0.30;;;11.10;99.90;;;;;;5135838;27;20255;-67
2021/09/21 00:45:33;;;;;;;0.30;0.30;;;11.00;99.90;;;;;;5135531;27;20214;-68
2021/09/21 00:47:59;;;;;;;0.30;0.30;;;11.00;99.90;;;;;;5135439;27;20207;-68
2021/09/21 00:50:28;;;;;;;0.30;0.30;;;11.00;99.90;;;;;;5135450;27;20167;-66
2021/09/21 00:52:56;;;;;;;0.30;0.30;;;11.00;99.90;;;;;;5135511;27;20183;-67
2021/09/21 00:55:22;;;;;;;0.30;0.30;;;11.00;99.90;;;;;;5135238;27;20176;-68
2021/09/21 00:57:48;;;;;;;0.30;0.30;;;10.90;99.90;;;;;;5135574;27;20538;-67
2021/09/21 01:00:16;;;;;;;0.40;0.40;;;10.90;99.90;;;;;;5135265;27;20177;-67
2021/09/21 01:02:42;;;;;;;0.30;0.30;;;10.90;99.90;;;;;;5135126;27;20187;-67
2021/09/21 01:05:10;;;;;;;0.30;0.30;;;10.80;99.90;;;;;;5135034;27;20590;-66
2021/09/21 01:07:40;;;;;;;0.30;0.30;;;10.80;99.90;;;;;;5135331;27;20279;-67
2021/09/21 01:10:11;;;;;;;0.30;0.30;;;10.70;99.90;;;;;;5135231;27;20209;-68
2021/09/21 01:12:38;;;;;;;0.30;0.30;;;10.60;99.90;;;;;;5134881;27;20187;-66
2021/09/21 01:15:06;;;;;;;0.30;0.30;;;10.60;99.90;;;;;;5134519;27;20175;-67
2021/09/21 01:17:32;;;;;;;0.30;0.30;;;10.40;99.90;;;;;;5116763;27;20636;-68
2021/09/21 01:19:58;;;;;;;0.30;0.30;;;10.50;99.90;;;;;;5135186;27;20183;-66
2021/09/21 01:22:24;;;;;;;0.75;0.75;;;10.50;99.90;;;;;;5134840;27;20215;-68
2021/09/21 01:24:50;;;;;;;0.60;0.60;;;10.40;99.90;;;;;;5134871;27;20236;-67
2021/09/21 01:27:16;;;;;;;0.30;0.30;;;10.30;99.90;;;;;;5134909;27;20163;-68
2021/09/21 01:29:42;;;;;;;0.30;0.30;;;10.50;99.90;;;;;;5134970;27;20170;-68
2021/09/21 01:32:07;;;;;;;0.30;0.30;;;10.60;99.90;;;;;;5134886;27;20215;-67
2021/09/21 01:34:35;;;;;;;0.80;0.80;;;10.70;99.90;;;;;;5134546;27;20891;-68
2021/09/21 01:37:01;;;;;;;0.30;0.30;;;10.70;99.90;;;;;;5134783;27;20568;-66
2021/09/21 01:39:26;;;;;;;0.30;0.30;;;10.60;99.90;;;;;;5134874;27;20222;-66
2021/09/21 01:41:52;;;;;;;1.57;1.57;;;10.60;99.90;;;;;;5134715;27;20201;-67
2021/09/21 01:44:19;;;;;;;0.30;0.30;;;10.70;99.90;;;;;;5134445;27;20174;-67
2021/09/21 01:46:45;;;;;;;0.30;0.30;;;10.70;99.90;;;;;;5134389;27;20519;-68
2021/09/21 01:49:14;;;;;;;0.30;0.30;;;10.70;99.90;;;;;;5134664;27;20263;-67
2021/09/21 01:51:44;;;;;;;0.30;0.30;;;10.80;99.90;;;;;;5134430;27;20293;-67
2021/09/21 01:59:37;;;;;;;0.30;0.30;;;11.00;99.90;;;;;;5134690;28;20217;-68
2021/09/21 02:02:03;;;;;;;0.30;0.30;;;11.00;99.90;;;;;;5134344;28;20191;-68
2021/09/21 02:04:29;;;;;;;0.30;0.30;;;11.10;99.90;;;;;;5134439;28;20515;-66
2021/09/21 02:06:55;;;;;;;0.30;0.30;;;11.20;99.90;;;;;;5134670;28;20307;-66
2021/09/21 02:09:21;;;;;;;0.30;0.30;;;11.30;99.90;;;;;;5134325;28;20203;-66
2021/09/21 02:11:48;;;;;;;0.77;0.77;;;11.40;99.90;;;;;;5134931;28;20184;-67
2021/09/21 02:14:15;;;;;;;0.30;0.30;;;11.50;99.90;;;;;;5134047;28;20191;-66
2021/09/21 02:16:46;;;;;;;0.30;0.30;;;11.60;99.90;;;;;;5134209;28;20163;-68
2021/09/21 02:19:11;;;;;;;0.30;0.30;;;11.70;99.90;;;;;;5134490;28;20678;-67
2021/09/21 02:21:37;;;;;;;0.30;0.30;;;11.80;99.90;;;;;;5134441;28;20199;-68
2021/09/21 02:24:04;;;;;;;0.30;0.30;;;11.80;99.90;;;;;;5134164;27;20176;-67
2021/09/21 02:26:29;;;;;;;0.40;0.40;;;11.90;99.90;;;;;;5138716;27;20401;-66
2021/09/21 02:28:56;;;;;;;1.33;1.23;;;12.00;99.90;;;;;;5138137;27;20252;-67
2021/09/21 02:31:22;;;;;;;0.30;0.30;;;12.00;99.90;;;;;;5138375;27;20457;-68
2021/09/21 02:33:48;;;;;;;0.30;0.30;;;11.90;99.90;;;;;;5137991;27;20175;-68
2021/09/21 02:36:14;;;;;;;0.30;0.30;;;12.00;99.90;;;;;;5138227;27;20171;-67
2021/09/21 02:38:40;;;;;;;0.30;0.30;;;12.10;99.90;;;;;;5138194;27;20693;-68
2021/09/21 02:41:07;;;;;;;0.53;0.53;;;12.10;99.90;;;;;;5138141;27;20282;-66
2021/09/21 02:43:33;;;;;;;0.30;0.30;;;12.10;99.90;;;;;;5137943;27;20442;-67
2021/09/21 02:46:01;;;;;;;0.30;0.30;;;12.20;99.90;;;;;;5137977;27;20182;-67
2021/09/21 02:48:30;;;;;;;0.50;0.50;;;12.20;99.90;;;;;;5137810;27;20201;-68
2021/09/21 02:50:56;;;;;;;0.30;0.30;;;12.10;99.90;;;;;;5137991;27;20192;-67
2021/09/21 02:53:22;;;;;;;0.50;0.50;;;12.20;99.90;;;;;;5137609;27;20192;-67
2021/09/21 02:55:48;;;;;;;0.30;0.30;;;12.20;99.90;;;;;;5137786;27;20397;-67
2021/09/21 02:58:14;;;;;;;0.30;0.30;;;12.20;99.90;;;;;;5137776;27;20950;-68
2021/09/21 03:00:40;;;;;;;0.63;0.63;;;12.20;99.90;;;;;;5137746;27;20167;-68
2021/09/21 03:03:07;;;;;;;0.30;0.30;;;12.20;99.90;;;;;;5137568;27;20633;-67
2021/09/21 03:05:41;;;;;;;0.88;0.60;;;12.20;99.90;;;;;;5137768;27;20534;-68
2021/09/21 03:10:48;;;;;;;1.15;1.15;;;12.10;99.90;;;;;;5137423;27;20171;-67
2021/09/21 03:18:30;;;;;;;0.30;0.30;;;11.80;99.90;;;;;;5137605;27;20627;-68
2021/09/21 03:20:56;;;;;;;0.30;0.30;;;11.60;99.90;;;;;;5137166;27;20195;-68
2021/09/21 03:23:22;;;;;;;0.30;0.30;;;11.50;99.90;;;;;;5137240;27;20228;-67
2021/09/21 03:25:48;;;;;;;0.40;0.40;;;11.40;99.90;;;;;;5137400;27;20172;-67
2021/09/21 03:28:13;;;;;;;0.30;0.30;;;11.20;99.90;;;;;;5137123;27;20198;-67
2021/09/21 03:30:39;;;;;;;0.40;0.40;;;11.10;99.90;;;;;;5137176;27;20406;-67
2021/09/21 03:33:05;;;;;;;0.30;0.30;;;11.00;99.90;;;;;;5136976;27;20886;-68
2021/09/21 03:35:30;;;;;;;0.40;0.40;;;11.00;99.90;;;;;;5136874;27;20208;-66
2021/09/21 03:37:56;;;;;;;0.67;0.67;;;10.90;99.90;;;;;;5136498;27;20188;-66
2021/09/21 03:40:22;;;;;;;0.30;0.30;;;10.90;99.90;;;;;;5137132;27;20163;-67
2021/09/21 03:42:48;;;;;;;0.30;0.30;;;10.90;99.90;;;;;;5136813;27;20190;-67
2021/09/21 03:45:14;;;;;;;0.30;0.30;;;10.90;99.90;;;;;;5136596;27;20273;-66
2021/09/21 03:47:40;;;;;;;0.30;0.30;;;10.80;99.90;;;;;;5136690;27;20199;-68
2021/09/21 03:50:07;;;;;;;0.40;0.40;;;10.70;99.90;;;;;;5136930;27;20393;-68
2021/09/21 03:52:32;;;;;;;0.30;0.30;;;10.60;99.90;;;;;;5136534;27;20191;-68
2021/09/21 03:54:58;;;;;;;0.30;0.30;;;10.50;99.90;;;;;;5136646;27;20175;-68
2021/09/21 03:57:24;;;;;;;0.30;0.30;;;10.50;99.90;;;;;;5136721;27;20159;-67
2021/09/21 03:59:49;;;;;;;0.30;0.30;;;10.50;99.90;;;;;;5136689;27;20164;-66
2021/09/21 04:02:15;;;;;;;0.30;0.30;;;10.50;99.90;;;;;;5136387;27;20192;-66
2021/09/21 04:04:41;;;;;;;0.30;0.30;;;10.50;99.90;;;;;;5136392;27;20603;-67
2021/09/21 04:07:06;;;;;;;0.30;0.30;;;10.40;99.90;;;;;;5136579;27;20261;-68
2021/09/21 04:09:32;;;;;;;0.30;0.30;;;10.40;99.90;;;;;;5136346;27;20199;-68
2021/09/21 04:11:58;;;;;;;0.30;0.30;;;10.30;99.90;;;;;;5136378;27;20262;-68
2021/09/21 04:14:23;;;;;;;0.30;0.30;;;10.20;99.90;;;;;;5136011;27;20687;-67
2021/09/21 04:16:49;;;;;;;0.30;0.30;;;10.10;99.90;;;;;;5136179;27;20168;-68
2021/09/21 04:19:15;;;;;;;0.30;0.30;;;10.10;99.90;;;;;;5136166;27;20208;-67
2021/09/21 04:21:40;;;;;;;0.30;0.30;;;10.10;99.90;;;;;;5117594;27;20440;-66
2021/09/21 04:24:06;;;;;;;0.30;0.30;;;10.10;99.90;;;;;;5135972;27;20168;-68
2021/09/21 04:26:32;;;;;;;0.60;0.60;;;10.10;99.90;;;;;;5135937;27;20178;-67
2021/09/21 04:28:58;;;;;;;0.30;0.30;;;10.00;99.90;;;;;;5136009;27;20202;-67
2021/09/21 04:31:25;;;;;;;0.30;0.30;;;10.00;99.90;;;;;;5135807;27;20412;-67
2021/09/21 04:33:53;;;;;;;0.35;0.35;;;10.00;99.90;;;;;;5135879;27;20758;-67
2021/09/21 04:36:19;;;;;;;0.30;0.30;;;10.00;99.90;;;;;;5135864;27;20210;-68
2021/09/21 04:38:45;;;;;;;0.30;0.30;;;10.00;99.90;;;;;;5135853;27;20292;-68
2021/09/21 04:41:11;;;;;;;0.30;0.30;;;10.00;99.90;;;;;;5135903;27;20198;-67
2021/09/21 04:43:37;;;;;;;0.30;0.30;;;9.90;99.90;;;;;;5117029;27;20171;-68
2021/09/21 04:46:04;;;;;;;0.30;0.30;;;9.70;99.90;;;;;;5135596;27;20405;-68
2021/09/21 04:48:30;;;;;;;0.30;0.30;;;9.80;99.90;;;;;;5134794;27;20207;-66
2021/09/21 04:50:56;;;;;;;0.30;0.30;;;9.80;99.90;;;;;;5135505;27;20189;-67
2021/09/21 04:53:22;;;;;;;0.30;0.30;;;9.80;99.90;;;;;;5135319;27;20222;-67
2021/09/21 04:55:47;;;;;;;0.30;0.30;;;9.90;99.90;;;;;;5135587;27;20175;-67
2021/09/21 04:58:13;;;;;;;0.30;0.30;;;9.90;99.90;;;;;;5135500;27;20212;-67
2021/09/21 05:00:39;;;;;;;0.30;0.30;;;9.90;99.90;;;;;;5135373;27;20174;-68
2021/09/21 05:03:05;;;;;;;1.03;1.03;;;9.90;99.90;;;;;;5135300;27;20479;-68
2021/09/21 05:05:30;;;;;;;0.40;0.40;;;9.90;99.90;;;;;;5135054;27;20491;-68
2021/09/21 05:07:57;;;;;;;0.40;0.40;;;10.00;99.90;;;;;;5135079;27;20189;-68
2021/09/21 05:10:24;;;;;;;0.30;0.30;;;10.00;99.90;;;;;;5135222;27;20393;-68
2021/09/21 05:12:49;;;;;;;0.60;0.55;;;10.10;99.90;;;;;;5134939;27;20202;-68
2021/09/21 05:15:15;;;;;;;0.30;0.30;;;10.10;99.90;;;;;;5134851;27;20174;-66
2021/09/21 05:17:41;;;;;;;0.30;0.30;;;10.10;99.90;;;;;;5135050;27;20181;-66
2021/09/21 05:20:07;;;;;;;0.30;0.30;;;10.10;99.90;;;;;;5135058;27;20631;-66
2021/09/21 05:22:33;;;;;;;2.65;2.55;;;10.10;99.90;;;;;;5134867;27;20194;-67
2021/09/21 05:24:59;;;;;;;0.40;0.40;;;10.10;99.90;;;;;;5134692;27;20257;-67
2021/09/21 05:27:25;;;;;;;0.30;0.30;;;10.10;99.90;;;;;;5134946;27;20194;-68
2021/09/21 05:29:51;;;;;;;0.30;0.30;;;10.20;99.90;;;;;;5134785;27;20406;-68
2021/09/21 05:32:16;;;;;;;0.30;0.30;;;10.20;99.90;;;;;;5134667;27;20274;-66
2021/09/21 05:34:42;;;;;;;0.40;0.40;;;10.30;99.90;;;;;;5134578;27;20182;-67
2021/09/21 05:37:08;;;;;;;0.30;0.30;;;10.30;99.90;;;;;;5134832;27;20195;-68
2021/09/21 05:39:33;;;;;;;0.30;0.30;;;10.50;99.90;;;;;;5134858;27;20193;-67
2021/09/21 05:41:59;;;;;;;0.30;0.30;;;10.50;99.90;;;;;;5134803;27;20191;-66
2021/09/21 05:44:25;;;;;;;0.30;0.30;;;10.70;99.90;;;;;;5134444;27;20642;-68
2021/09/21 05:46:50;;;;;;;0.30;0.30;;;10.90;99.90;;;;;;5134391;27;20222;-67
2021/09/21 05:49:18;;;;;;;0.30;0.30;;;11.10;99.90;;;;;;5134501;27;20203;-66
2021/09/21 05:51:46;;;;;;;0.30;0.30;;;11.30;99.90;;;;;;5134337;27;20205;-67
2021/09/21 05:54:24;;;;;;;0.30;0.30;;;11.40;99.90;;;;;;5134340;27;20270;-66
2021/09/21 05:56:51;;;;;;;0.30;0.30;;;11.50;99.90;;;;;;5116080;28;20178;-68
2021/09/21 05:59:24;;;;;;;0.30;0.30;;;11.60;99.90;;;;;;5115486;28;20633;-68
2021/09/21 06:01:50;;;;;;;0.30;0.30;;;11.70;99.90;;;;;;5132963;28;20207;-66
2021/09/21 06:04:15;;;;;;;0.50;0.50;;;11.70;99.90;;;;;;5133592;28;20224;-66
2021/09/21 06:06:47;;;;;;;0.30;0.30;;;11.80;99.90;;;;;;5134572;28;20164;-68
2021/09/21 06:09:16;;;;;;;0.52;0.52;;;11.80;99.90;;;;;;5115884;28;20214;-68
2021/09/21 06:11:42;;;;;;;0.30;0.30;;;11.90;99.90;;;;;;5115495;28;20199;-67
2021/09/21 06:14:08;;;;;;;0.47;0.47;;;11.90;99.90;;;;;;5133877;28;20190;-67
2021/09/21 06:16:34;;;;;;;0.30;0.30;;;12.00;99.90;;;;;;5134228;28;20632;-68
2021/09/21 06:18:59;;;;;;;0.47;0.47;;;12.10;99.90;;;;;;5134412;28;20171;-68
2021/09/21 06:21:26;;;;;;;0.30;0.30;;;12.10;99.90;;;;;;5133939;28;20777;-66
2021/09/21 06:23:52;;;;;;;0.30;0.30;;;12.20;99.90;;;;;;5134078;28;20147;-66
2021/09/21 06:26:18;;;;;;;0.30;0.30;;;12.10;99.90;;;;;;5134081;28;20264;-66
2021/09/21 06:28:44;;;;;;;0.30;0.30;;;12.20;99.90;;;;;;5133941;28;21017;-67
2021/09/21 06:31:11;;;;;;;0.30;0.30;;;12.30;99.90;;;;;;5134027;28;20187;-67
2021/09/21 06:33:38;;;;;;;0.30;0.30;;;12.30;99.90;;;;;;5134058;28;20409;-66
2021/09/21 06:36:06;;;;;;;0.30;0.30;;;12.40;99.90;;;;;;5098951;28;20267;-68
2021/09/21 06:38:37;;;;;;;0.30;0.30;;;12.40;99.90;;;;;;5115269;28;20214;-66
2021/09/21 06:41:03;;;;;;;0.30;0.30;;;12.20;99.90;;;;;;5133393;28;20187;-69
2021/09/21 06:43:29;;;;;;;1.10;1.08;;;12.10;99.90;;;;;;5134206;28;20167;-68
2021/09/21 06:45:56;;;;;;;0.50;0.50;;;12.00;99.90;;;;;;5134540;28;20518;-67
2021/09/21 06:48:23;;;;;;;0.30;0.30;;;12.10;99.90;;;;;;5134397;28;20282;-66
2021/09/21 06:50:49;;;;;;;0.30;0.30;;;12.20;99.90;;;;;;5134447;28;20694;-68
2021/09/21 06:53:14;;;;;;;0.50;0.50;;;12.40;99.90;;;;;;5134105;28;20175;-68
2021/09/21 06:55:40;;;;;;;0.30;0.30;;;12.60;99.90;;;;;;5134352;28;20174;-66
2021/09/21 06:58:06;;;;;;;0.30;0.30;;;12.70;99.90;;;;;;5134415;28;20175;-66
2021/09/21 07:00:35;;;;;;;0.30;0.30;;;12.90;99.90;;;;;;5133893;28;20179;-67
2021/09/21 07:03:01;;;;;;;0.30;0.30;;;12.90;99.90;;;;;;5134491;28;20236;-67
2021/09/21 07:05:26;;;;;;;0.30;0.30;;;13.00;99.90;;;;;;5133727;28;20409;-66
2021/09/21 07:07:52;;;;;;;0.50;0.50;;;13.00;99.90;;;;;;5132602;28;20456;-68
2021/09/21 07:10:19;;;;;;;0.30;0.30;;;13.10;99.90;;;;;;5133519;27;20720;-67
2021/09/21 07:12:45;;;;;;;0.30;0.30;;;13.20;99.90;;;;;;5136297;27;20473;-66
2021/09/21 07:15:12;;;;;;;0.30;0.30;;;13.40;99.90;;;;;;5136372;27;20409;-67
2021/09/21 07:17:38;;;;;;;0.30;0.30;;;13.40;99.90;;;;;;5137107;27;20495;-67
2021/09/21 07:20:05;;;;;;;2.47;2.33;;;13.60;99.90;;;;;;5137355;27;20499;-67
2021/09/21 07:22:32;;;;;;;0.40;0.40;;;13.80;99.90;;;;;;5136231;27;20194;-67
2021/09/21 07:24:58;;;;;;;0.47;0.47;;;13.90;99.90;;;;;;5137355;27;20401;-68
2021/09/21 07:27:24;;;;;;;0.40;0.40;;;14.10;99.90;;;;;;5137660;27;20447;-67
2021/09/21 07:29:50;;;;;;;0.43;0.43;;;14.20;99.90;;;;;;5137662;27;20425;-68
2021/09/21 07:32:15;;;;;;;0.40;0.40;;;14.30;99.90;;;;;;5137018;27;20974;-69
2021/09/21 07:34:41;;;;;;;0.37;0.37;;;14.50;99.90;;;;;;5136947;27;20650;-69
2021/09/21 07:37:09;;;;;;;0.30;0.30;;;14.60;99.80;;;;;;5137192;27;20202;-68
2021/09/21 07:39:35;;;;;;;0.30;0.30;;;14.60;99.90;;;;;;5137270;27;20572;-67
2021/09/21 07:42:00;;;;;;;1.23;1.13;;;14.70;99.90;;;;;;5137304;27;20432;-69
2021/09/21 07:44:26;;;;;;;0.30;0.30;;;15.00;99.90;;;;;;5136818;27;20197;-68
2021/09/21 07:46:53;;;;;;;1.37;1.27;;;15.20;99.50;;;;;;5137076;27;20199;-68
2021/09/21 07:49:18;;;;;;;0.30;0.30;;;15.40;99.90;;;;;;5136733;27;20187;-69
2021/09/21 07:51:45;;;;;;;0.30;0.30;;;15.70;99.90;;;;;;5136153;27;20431;-67
2021/09/21 07:54:11;;;;;;;0.30;0.30;;;16.00;98.70;;;;;;5135973;27;20170;-67
2021/09/21 07:56:37;;;;;;;0.30;0.30;;;16.20;98.70;;;;;;5136192;27;20401;-67
2021/09/21 07:59:05;;;;;;;0.30;0.30;;;16.40;98.50;;;;;;5135662;27;20882;-69
2021/09/21 08:01:30;;;;;;;1.60;0.80;;;16.70;98.30;;;;;;5136692;27;20557;-68
2021/09/21 08:03:56;;;;;;;0.77;0.77;;;16.80;96.90;;;;;;5134202;27;20412;-68
2021/09/21 08:06:23;;;;;;;0.50;0.50;;;17.10;97.20;;;;;;5136232;27;20183;-69
2021/09/21 08:08:49;;;;;;;0.30;0.30;;;17.30;96.80;;;;;;5136537;27;20463;-68
2021/09/21 08:11:15;;;;;;;0.40;0.40;;;17.40;96.30;;;;;;5135541;27;20425;-67
2021/09/21 08:13:40;;;;;;;0.70;0.70;;;17.80;96.60;;;;;;5136106;27;20214;-68
2021/09/21 08:16:06;;;;;;;0.40;0.40;;;18.10;96.60;;;;;;5136910;27;20405;-69
2021/09/21 08:18:32;;;;;;;0.30;0.30;;;18.20;95.30;;;;;;5136246;27;20569;-69
2021/09/21 08:21:00;;;;;;;0.30;0.30;;;18.00;95.10;;;;;;5136149;27;20425;-68
2021/09/21 08:23:25;;;;;;;0.57;0.57;;;17.90;95.70;;;;;;5136070;27;20167;-67
2021/09/21 08:25:52;;;;;;;0.90;0.90;;;18.00;95.80;;;;;;5136590;27;20424;-69
2021/09/21 08:28:17;;;;;;;0.30;0.30;;;18.20;95.40;;;;;;5136214;27;20207;-69
2021/09/21 08:30:43;;;;;;;0.30;0.30;;;18.30;95.20;;;;;;5136613;27;20397;-67
2021/09/21 08:33:09;;;;;;;0.40;0.40;;;18.40;95.20;;;;;;5135846;27;20163;-69
2021/09/21 08:35:34;;;;;;;0.70;0.63;;;18.50;95.30;;;;;;5136074;27;20172;-68
2021/09/21 08:38:01;;;;;;;0.30;0.30;;;18.20;95.50;;;;;;5136154;27;20651;-68
2021/09/21 08:40:27;;;;;;;0.83;0.83;;;18.20;95.90;;;;;;5136075;27;20178;-68
2021/09/21 08:42:53;;;;;;;0.30;0.30;;;18.60;97.20;;;;;;5136254;27;20428;-68
2021/09/21 08:45:19;;;;;;;0.30;0.30;;;18.90;95.00;;;;;;5135667;27;20453;-67
2021/09/21 08:47:45;;;;;;;0.83;0.83;;;19.00;94.80;;;;;;5135532;27;20955;-69
2021/09/21 08:50:11;;;;;;;0.30;0.30;;;19.10;95.30;;;;;;5135806;27;20260;-67
2021/09/21 08:52:41;;;;;;;0.30;0.30;;;19.00;94.20;;;;;;5135818;27;20445;-68
2021/09/21 08:55:08;;;;;;;0.30;0.30;;;19.50;94.10;;;;;;5135843;27;20523;-68
2021/09/21 08:57:35;;;;;;;0.50;0.50;;;20.20;91.20;;;;;;5136110;27;20494;-68
2021/09/21 09:00:03;;;;;;;0.30;0.30;;;20.60;91.20;;;;;;5136045;27;20436;-68
2021/09/21 09:02:28;;;;;;;0.30;0.30;;;21.20;91.40;;;;;;5135662;27;20443;-69
2021/09/21 09:05:07;;;;;;;0.47;0.40;;;21.20;90.00;;;;;;5135452;27;20400;-68
2021/09/21 09:07:47;;;;;;;0.50;0.50;;;21.00;90.50;;;;;;5135584;27;20175;-69
2021/09/21 09:10:13;;;;;;;0.60;0.60;;;20.90;90.60;;;;;;5135825;27;20918;-70
2021/09/21 09:12:39;;;;;;;0.40;0.40;;;20.80;92.20;;;;;;5135148;27;20509;-68
2021/09/21 09:15:22;;;;;;;0.30;0.30;;;20.80;90.60;;;;;;5135117;27;20530;-69
2021/09/21 09:18:00;;;;;;;0.40;0.40;;;20.80;91.90;;;;;;5135546;27;20416;-67
2021/09/21 09:20:31;;;;;;;1.33;1.23;;;20.60;90.30;;;;;;5134932;27;20440;-70
2021/09/21 09:22:58;;;;;;;0.30;0.30;;;20.50;86.70;;;;;;5134433;27;20940;-67
2021/09/21 09:25:24;;;;;;;0.70;0.70;;;20.10;88.50;;;;;;5134903;27;20401;-68
2021/09/21 09:27:50;;;;;;;0.30;0.30;;;19.80;90.00;;;;;;5135148;27;20445;-69
2021/09/21 09:30:22;;;;;;;1.03;1.03;;;20.80;90.70;;;;;;5135185;27;20436;-68
2021/09/21 09:32:57;;;;;;;0.30;0.30;;;22.90;82.70;;;;;;5135329;27;20421;-69
2021/09/21 09:35:24;;;;;;;0.30;0.30;;;25.30;76.50;;;;;;5134339;27;20401;-70
2021/09/21 09:37:50;;;;;;;0.30;0.30;;;27.00;64.40;;;;;;5134868;27;20405;-69
2021/09/21 09:40:16;;;;;;;0.30;0.30;;;27.20;60.40;;;;;;5134941;27;20376;-69
2021/09/21 09:42:43;;;;;;;0.40;0.40;;;26.70;59.00;;;;;;5133517;27;20433;-68
2021/09/21 09:45:11;;;;;;;1.17;1.07;;;26.30;63.60;;;;;;5135039;27;20818;-69
2021/09/21 09:47:49;;;;;;;0.73;0.73;;;25.60;61.10;;;;;;5134453;27;20848;-69
2021/09/21 09:50:17;;;;;;;0.30;0.30;;;25.10;61.60;;;;;;5134601;27;20405;-68
2021/09/21 09:52:43;;;;;;;0.30;0.30;;;25.30;63.10;;;;;;5134744;27;20895;-69
2021/09/21 09:55:09;;;;;;;0.30;0.30;;;26.00;62.00;;;;;;5134322;27;20383;-70
2021/09/21 09:57:40;;;;;;;0.30;0.30;;;25.80;59.30;;;;;;5134823;28;20520;-69
2021/09/21 10:00:07;;;;;;;0.40;0.40;;;24.80;59.10;;;;;;5135114;28;20853;-68
2021/09/21 10:02:33;;;;;;;1.00;1.00;;;24.00;63.20;;;;;;5134370;28;20472;-69
2021/09/21 10:04:59;;;;;;;0.60;0.50;;;23.20;69.20;;;;;;5134348;28;20400;-68
2021/09/21 10:07:25;;;;;;;0.30;0.30;;;22.50;67.70;;;;;;5134612;28;20226;-70
2021/09/21 10:09:52;;;;;;;0.30;0.30;;;22.40;72.60;;;;;;5116361;28;20801;-68
2021/09/21 10:12:18;;;;;;;0.60;0.60;;;21.80;68.70;;;;;;5134851;28;20524;-69
2021/09/21 10:14:44;;;;;;;0.37;0.37;;;21.50;76.70;;;;;;5134325;28;20505;-68
2021/09/21 10:17:09;;;;;;;0.50;0.50;;;22.60;75.30;;;;;;5134578;28;20397;-69
2021/09/21 10:19:40;;;;;;;0.30;0.30;;;24.20;65.50;;;;;;5134455;28;20623;-69
2021/09/21 10:22:09;;;;;;;0.30;0.30;;;24.90;62.70;;;;;;5134637;28;20191;-69
2021/09/21 10:24:40;;;;;;;0.40;0.40;;;24.60;64.30;;;;;;5134132;28;20437;-67
2021/09/21 10:27:11;;;;;;;0.30;0.30;;;24.50;62.50;;;;;;5134906;28;20379;-68
2021/09/21 10:29:37;;;;;;;0.93;0.93;;;24.10;63.90;;;;;;5134065;28;20448;-67
2021/09/21 10:32:16;;;;;;;2.10;0.53;;;23.90;66.70;;;;;;5134230;28;20409;-69
2021/09/21 10:34:46;;;;;;;0.30;0.30;;;23.40;65.20;;;;;;5134193;28;20768;-70
2021/09/21 10:37:13;;;;;;;0.47;0.47;;;22.90;70.00;;;;;;5134679;28;20438;-70
2021/09/21 10:39:39;;;;;;;0.30;0.30;;;22.30;69.90;;;;;;5134706;28;20410;-69
2021/09/21 10:42:13;;;;;;;0.40;0.40;;;21.60;73.10;;;;;;5134245;28;20431;-69
2021/09/21 10:44:53;;;;;;;0.30;0.30;;;21.30;72.40;;;;;;5134187;28;20403;-68
2021/09/21 10:47:28;;;;;;;0.30;0.30;;;21.00;74.30;;;;;;5136779;27;20955;-67
2021/09/21 10:50:16;;;;;;;0.40;0.40;;;20.70;76.00;;;;;;5120020;27;20747;-68
2021/09/21 10:52:42;;;;;;;0.40;0.40;;;20.40;76.00;;;;;;5138381;27;20494;-69
2021/09/21 10:55:13;;;;;;;0.60;0.40;;;20.20;79.50;;;;;;5137878;27;20421;-68
2021/09/21 10:57:45;;;;;;;0.30;0.30;;;20.00;78.50;;;;;;5119815;27;20422;-68
2021/09/21 11:00:16;;;;;;;1.17;1.17;;;19.90;81.00;;;;;;5138621;27;20407;-68
2021/09/21 11:02:52;;;;;;;0.77;0.77;;;20.10;81.90;;;;;;5138855;27;20433;-68
2021/09/21 11:05:19;;;;;;;0.30;0.30;;;20.00;80.30;;;;;;5137994;27;20887;-69
2021/09/21 11:07:58;;;;;;;0.50;0.50;;;19.70;79.40;;;;;;5137201;27;20501;-69
2021/09/21 11:10:33;;;;;;;1.80;0.70;;;20.00;80.80;;;;;;5137747;27;20480;-68
2021/09/21 11:12:59;;;;;;;0.40;0.40;;;19.30;77.20;;;;;;5137684;27;20755;-68
2021/09/21 11:15:27;;;;;;;0.30;0.30;;;18.80;80.40;;;;;;5137298;27;20484;-69
2021/09/21 11:18:10;;;;;;;0.30;0.30;;;18.90;83.90;;;;;;5137301;27;20401;-68
2021/09/21 11:20:47;;;;;;;0.30;0.30;;;19.30;83.30;;;;;;5137471;27;20398;-68
2021/09/21 11:23:14;;;;;;;0.30;0.30;;;19.50;83.30;;;;;;5137184;27;20413;-70
2021/09/21 11:25:40;;;;;;;0.30;0.30;;;19.70;81.70;;;;;;5137379;27;20398;-70
2021/09/21 11:28:06;;;;;;;0.30;0.30;;;19.80;79.00;;;;;;5137709;27;20449;-68
2021/09/21 11:30:32;;;;;;;0.40;0.40;;;19.30;77.10;;;;;;5136654;27;20498;-69
2021/09/21 11:32:58;;;;;;;0.50;0.50;;;19.20;80.20;;;;;;5136354;27;20510;-67
2021/09/21 11:35:23;;;;;;;2.50;0.80;;;19.00;78.80;;;;;;5135952;27;20414;-68
2021/09/21 11:37:52;;;;;;;0.40;0.40;;;18.80;82.70;;;;;;5135707;27;20729;-67
2021/09/21 11:40:29;;;;;;;0.30;0.30;;;18.40;84.10;;;;;;5136974;27;20175;-69
2021/09/21 11:42:56;;;;;;;3.20;2.13;;;18.10;85.70;;;;;;5136861;27;20428;-70
2021/09/21 11:45:22;;;;;;;0.40;0.40;;;18.30;86.70;;;;;;5136766;27;20786;-68
2021/09/21 11:47:49;;;;;;;1.90;1.90;;;18.60;86.20;;;;;;5136742;27;20874;-69
2021/09/21 11:50:41;;;;;;;0.30;0.30;;;19.20;87.60;;;;;;5118479;27;20951;-68
2021/09/21 11:53:09;;;;;;;0.30;0.30;;;19.50;81.60;;;;;;5132382;27;20416;-70
2021/09/21 11:55:38;;;;;;;0.40;0.40;;;19.70;81.80;;;;;;5137044;27;20399;-69
2021/09/21 11:58:05;;;;;;;0.67;0.67;;;19.70;81.30;;;;;;5136143;27;20421;-67
2021/09/21 12:00:36;;;;;;;1.13;0.70;;;19.70;83.30;;;;;;5136522;27;20407;-67
2021/09/21 12:03:06;;;;;;;0.50;0.50;;;19.50;82.10;;;;;;5136624;27;20471;-69
2021/09/21 12:05:34;;;;;;;0.30;0.30;;;19.40;82.10;;;;;;5136848;27;20427;-69
2021/09/21 12:08:06;;;;;;;0.30;0.30;;;19.30;83.30;;;;;;5136555;27;20539;-69
2021/09/21 12:10:32;;;;;;;0.30;0.30;;;19.20;83.10;;;;;;5136676;27;20439;-67
2021/09/21 12:13:19;;;;;;;0.30;0.30;;;19.20;82.70;;;;;;5136232;27;20413;-69
2021/09/21 12:15:56;;;;;;;0.30;0.30;;;19.10;82.80;;;;;;5119397;27;20931;-68
2021/09/21 12:18:24;;;;;;;0.30;0.30;;;19.10;84.10;;;;;;5136479;27;20448;-71
2021/09/21 12:20:53;;;;;;;0.30;0.30;;;19.30;83.50;;;;;;5136157;27;20483;-70
2021/09/21 12:23:28;;;;;;;0.30;0.30;;;19.40;83.50;;;;;;5135939;27;20752;-68
2021/09/21 12:25:55;;;;;;;0.60;0.60;;;20.00;82.90;;;;;;5136276;27;20410;-70
2021/09/21 12:28:31;;;;;;;0.30;0.30;;;20.50;79.70;;;;;;5135875;27;20466;-70
2021/09/21 12:31:05;;;;;;;0.40;0.40;;;20.40;79.60;;;;;;5135875;27;20421;-71
2021/09/21 12:33:35;;;;;;;0.30;0.30;;;20.70;80.60;;;;;;5135976;27;20813;-69
2021/09/21 12:36:01;;;;;;;0.60;0.60;;;20.60;78.30;;;;;;5136092;27;20400;-70
2021/09/21 12:38:27;;;;;;;0.30;0.30;;;20.40;80.20;;;;;;5135886;27;20412;-69
2021/09/21 12:40:58;;;;;;;0.50;0.50;;;20.30;81.10;;;;;;5135611;27;20178;-69
2021/09/21 12:43:29;;;;;;;0.40;0.40;;;20.10;81.10;;;;;;5135522;27;20174;-68
2021/09/21 12:45:57;;;;;;;0.30;0.30;;;19.90;84.20;;;;;;5135699;27;20454;-68
2021/09/21 12:48:32;;;;;;;1.37;1.37;;;19.60;83.40;;;;;;5135550;27;20451;-70
2021/09/21 12:51:00;;;;;;;0.30;0.30;;;19.40;82.00;;;;;;5135636;27;20409;-71
2021/09/21 12:53:26;;;;;;;0.63;0.63;;;19.20;82.30;;;;;;5135815;27;20397;-68
2021/09/21 12:55:56;;;;;;;0.30;0.30;;;19.20;83.10;;;;;;5135862;27;20535;-71
2021/09/21 12:58:24;;;;;;;0.50;0.50;;;19.30;89.40;;;;;;5135487;27;20398;-70
2021/09/21 13:00:51;;;;;;;0.30;0.30;;;19.10;86.70;;;;;;5135432;27;20732;-68
2021/09/21 13:03:18;;;;;;;0.70;0.70;;;18.90;86.00;;;;;;5135170;27;20411;-68